OTP weather

Henri Coandă International Airport
Bucharest, Bucureşti, Romania

Public forecast

Using degrees Celsius for public forecast. Weather courtesy of forecast.io.

METAR (pilot weather report)

Retrieved 2019/02/16 05:30 UTC (16 minutes ago):

LROP 160530Z 27004KT 3000 BR NSC M01/M02 Q1030 NOSIG

TAF (pilot weather forecast)

Forecast is more than 12 hours old.

Retrieved 2019/02/15 00:33 UTC (1 day ago):

TAF LROP 152300Z 1600/1624 25008KT 9999 BKN035 PROB30 TEMPO 1601/1606 3000 BR BKN010